ANA22 RJAA-RJTT
Flight info
| Callsign | ANA22 |
|---|---|
| Flight time | 0h 22m |
| Altitude | 26000 |
| Route | PEDLA Y824 AROSA |
| Aircraft | B738/M-SDE2E3FGHIRWXY/LB1 |
Departure
| Time | 2026-02-21 07:04 |
|---|---|
| Airport | Narita International Airport (RJAA) |
Arrival
| Time | 2026-02-21 07:26 |
|---|---|
| Airport | Tokyo Haneda International Airport (RJTT) |
| Time | Latitude | Longitude | Altitude | Speed | Heading |
|---|---|---|---|---|---|
| 2026-02-21 06:35 | 35.76194 | 140.38379 | 140 ft | 0 kts | 59° |
| 2026-02-21 06:53 | 35.76188 | 140.38365 | 140 ft | 2 kts | 59° |
| 2026-02-21 06:53 | 35.76180 | 140.38350 | 140 ft | 2 kts | 60° |
| 2026-02-21 06:53 | 35.76173 | 140.38333 | 140 ft | 2 kts | 60° |
| 2026-02-21 06:54 | 35.76165 | 140.38318 | 140 ft | 2 kts | 59° |
| 2026-02-21 06:54 | 35.76158 | 140.38301 | 140 ft | 2 kts | 60° |
| 2026-02-21 06:54 | 35.76153 | 140.38292 | 140 ft | 2 kts | 60° |
| 2026-02-21 06:54 | 35.76142 | 140.38280 | 140 ft | 2 kts | 19° |
| 2026-02-21 06:55 | 35.76127 | 140.38277 | 140 ft | 2 kts | 347° |
| 2026-02-21 06:55 | 35.76120 | 140.38280 | 140 ft | 0 kts | 330° |
| 2026-02-21 06:55 | 35.76116 | 140.38283 | 140 ft | 0 kts | 325° |
| 2026-02-21 06:59 | 35.76123 | 140.38277 | 140 ft | 5 kts | 331° |
| 2026-02-21 06:59 | 35.76191 | 140.38229 | 140 ft | 12 kts | 329° |
| 2026-02-21 06:59 | 35.76249 | 140.38173 | 140 ft | 9 kts | 295° |
| 2026-02-21 07:00 | 35.76217 | 140.38112 | 138 ft | 10 kts | 186° |
| 2026-02-21 07:00 | 35.76150 | 140.38142 | 139 ft | 10 kts | 149° |
| 2026-02-21 07:00 | 35.76061 | 140.38209 | 140 ft | 21 kts | 149° |
| 2026-02-21 07:00 | 35.75905 | 140.38327 | 138 ft | 28 kts | 151° |
| 2026-02-21 07:01 | 35.75731 | 140.38444 | 136 ft | 29 kts | 147° |
| 2026-02-21 07:01 | 35.75555 | 140.38574 | 137 ft | 29 kts | 150° |
| 2026-02-21 07:01 | 35.75396 | 140.38683 | 136 ft | 22 kts | 164° |
| 2026-02-21 07:01 | 35.75249 | 140.38667 | 138 ft | 20 kts | 158° |
| 2026-02-21 07:02 | 35.75124 | 140.38757 | 138 ft | 21 kts | 148° |
| 2026-02-21 07:02 | 35.74992 | 140.38853 | 136 ft | 22 kts | 151° |
| 2026-02-21 07:02 | 35.74856 | 140.38948 | 136 ft | 22 kts | 148° |
| 2026-02-21 07:02 | 35.74716 | 140.39050 | 134 ft | 24 kts | 149° |
| 2026-02-21 07:03 | 35.74564 | 140.39160 | 131 ft | 26 kts | 148° |
| 2026-02-21 07:03 | 35.74432 | 140.39221 | 130 ft | 18 kts | 205° |
| 2026-02-21 07:03 | 35.74366 | 140.39101 | 130 ft | 14 kts | 242° |
| 2026-02-21 07:03 | 35.74388 | 140.39033 | 130 ft | 8 kts | 329° |
| 2026-02-21 07:04 | 35.74582 | 140.38896 | 133 ft | 84 kts | 330° |
| 2026-02-21 07:04 | 35.75410 | 140.38286 | 278 ft | 180 kts | 331° |
| 2026-02-21 07:04 | 35.76619 | 140.37444 | 1055 ft | 230 kts | 334° |
| 2026-02-21 07:04 | 35.78131 | 140.36449 | 1904 ft | 257 kts | 334° |
| 2026-02-21 07:05 | 35.79727 | 140.35390 | 2508 ft | 255 kts | 332° |
| 2026-02-21 07:05 | 35.81249 | 140.34222 | 3044 ft | 263 kts | 328° |
| 2026-02-21 07:05 | 35.82793 | 140.33015 | 3541 ft | 264 kts | 330° |
| 2026-02-21 07:05 | 35.84368 | 140.31847 | 4041 ft | 268 kts | 330° |
| 2026-02-21 07:06 | 35.85977 | 140.30679 | 4546 ft | 265 kts | 330° |
| 2026-02-21 07:06 | 35.87499 | 140.29546 | 5023 ft | 245 kts | 326° |
| 2026-02-21 07:06 | 35.88565 | 140.28073 | 5515 ft | 225 kts | 292° |
| 2026-02-21 07:06 | 35.88873 | 140.26213 | 6043 ft | 227 kts | 274° |
| 2026-02-21 07:07 | 35.88902 | 140.24251 | 6544 ft | 227 kts | 261° |
| 2026-02-21 07:07 | 35.88299 | 140.22510 | 7002 ft | 229 kts | 232° |
| 2026-02-21 07:07 | 35.87130 | 140.21118 | 7108 ft | 235 kts | 217° |
| 2026-02-21 07:07 | 35.85681 | 140.20253 | 7092 ft | 230 kts | 192° |
| 2026-02-21 07:08 | 35.84088 | 140.20221 | 7101 ft | 229 kts | 172° |
| 2026-02-21 07:08 | 35.82556 | 140.20821 | 7093 ft | 232 kts | 151° |
| 2026-02-21 07:08 | 35.81232 | 140.21980 | 7097 ft | 233 kts | 142° |
| 2026-02-21 07:08 | 35.79890 | 140.23105 | 7088 ft | 233 kts | 157° |
| 2026-02-21 07:09 | 35.78320 | 140.23438 | 7100 ft | 231 kts | 181° |
| 2026-02-21 07:09 | 35.76701 | 140.23386 | 7096 ft | 232 kts | 182° |
| 2026-02-21 07:09 | 35.75075 | 140.23334 | 7094 ft | 231 kts | 182° |
| 2026-02-21 07:09 | 35.73468 | 140.23286 | 7095 ft | 231 kts | 182° |
| 2026-02-21 07:10 | 35.71859 | 140.23236 | 7095 ft | 231 kts | 182° |
| 2026-02-21 07:10 | 35.70246 | 140.23189 | 7094 ft | 231 kts | 182° |
| 2026-02-21 07:10 | 35.68618 | 140.23145 | 7004 ft | 235 kts | 182° |
| 2026-02-21 07:10 | 35.66987 | 140.23100 | 6804 ft | 233 kts | 182° |
| 2026-02-21 07:11 | 35.65365 | 140.23053 | 6604 ft | 231 kts | 182° |
| 2026-02-21 07:11 | 35.63778 | 140.23000 | 6419 ft | 229 kts | 182° |
| 2026-02-21 07:11 | 35.62179 | 140.22945 | 6203 ft | 228 kts | 182° |
| 2026-02-21 07:11 | 35.60589 | 140.22885 | 5997 ft | 226 kts | 182° |
| 2026-02-21 07:12 | 35.59006 | 140.22823 | 5797 ft | 228 kts | 182° |
| 2026-02-21 07:12 | 35.57439 | 140.22754 | 5600 ft | 227 kts | 182° |
| 2026-02-21 07:12 | 35.55846 | 140.22675 | 5395 ft | 226 kts | 182° |
| 2026-02-21 07:12 | 35.54275 | 140.22589 | 5202 ft | 226 kts | 182° |
| 2026-02-21 07:13 | 35.52703 | 140.22494 | 5009 ft | 226 kts | 182° |
| 2026-02-21 07:13 | 35.51139 | 140.22398 | 4807 ft | 225 kts | 182° |
| 2026-02-21 07:13 | 35.49565 | 140.22301 | 4610 ft | 226 kts | 182° |
| 2026-02-21 07:13 | 35.47992 | 140.22198 | 4414 ft | 224 kts | 182° |
| 2026-02-21 07:14 | 35.46424 | 140.22095 | 4212 ft | 224 kts | 182° |
| 2026-02-21 07:14 | 35.44867 | 140.21991 | 4105 ft | 222 kts | 182° |
| 2026-02-21 07:14 | 35.43317 | 140.21884 | 4096 ft | 223 kts | 182° |
| 2026-02-21 07:14 | 35.41756 | 140.21777 | 4090 ft | 224 kts | 182° |
| 2026-02-21 07:15 | 35.40207 | 140.21668 | 4087 ft | 224 kts | 182° |
| 2026-02-21 07:15 | 35.38649 | 140.21558 | 4091 ft | 223 kts | 182° |
| 2026-02-21 07:15 | 35.37076 | 140.21448 | 4090 ft | 224 kts | 182° |
| 2026-02-21 07:15 | 35.35534 | 140.21339 | 4090 ft | 225 kts | 182° |
| 2026-02-21 07:16 | 35.33966 | 140.21234 | 4090 ft | 226 kts | 182° |
| 2026-02-21 07:16 | 35.32394 | 140.21132 | 4087 ft | 224 kts | 182° |
| 2026-02-21 07:16 | 35.30821 | 140.21025 | 4092 ft | 224 kts | 182° |
| 2026-02-21 07:16 | 35.29269 | 140.20923 | 4088 ft | 224 kts | 182° |
| 2026-02-21 07:17 | 35.28376 | 140.20865 | 4046 ft | 223 kts | 183° |
| 2026-02-21 07:17 | 35.26821 | 140.20709 | 3942 ft | 224 kts | 192° |
| 2026-02-21 07:17 | 35.25474 | 140.19807 | 3856 ft | 216 kts | 227° |
| 2026-02-21 07:17 | 35.24639 | 140.18298 | 3789 ft | 221 kts | 258° |
| 2026-02-21 07:18 | 35.24858 | 140.16434 | 3600 ft | 226 kts | 296° |
| 2026-02-21 07:18 | 35.25756 | 140.14857 | 3324 ft | 227 kts | 307° |
| 2026-02-21 07:18 | 35.26660 | 140.13356 | 3420 ft | 213 kts | 304° |
| 2026-02-21 07:18 | 35.27457 | 140.11813 | 3664 ft | 218 kts | 302° |
| 2026-02-21 07:19 | 35.28274 | 140.10219 | 3878 ft | 224 kts | 302° |
| 2026-02-21 07:19 | 35.29117 | 140.08638 | 4025 ft | 224 kts | 303° |
| 2026-02-21 07:19 | 35.29990 | 140.07054 | 4051 ft | 222 kts | 304° |
| 2026-02-21 07:19 | 35.30858 | 140.05487 | 4072 ft | 222 kts | 304° |
| 2026-02-21 07:20 | 35.31723 | 140.03935 | 4104 ft | 222 kts | 304° |
| 2026-02-21 07:20 | 35.32593 | 140.02371 | 4098 ft | 222 kts | 304° |
| 2026-02-21 07:20 | 35.33453 | 140.00800 | 4145 ft | 223 kts | 303° |
| 2026-02-21 07:20 | 35.34331 | 139.99219 | 4241 ft | 224 kts | 304° |
| 2026-02-21 07:21 | 35.35209 | 139.97669 | 4227 ft | 220 kts | 305° |
| 2026-02-21 07:21 | 35.36052 | 139.96152 | 4112 ft | 208 kts | 304° |
| 2026-02-21 07:21 | 35.36827 | 139.94753 | 4045 ft | 194 kts | 304° |
| 2026-02-21 07:21 | 35.37562 | 139.93346 | 3692 ft | 197 kts | 302° |
| 2026-02-21 07:22 | 35.38298 | 139.91945 | 3356 ft | 195 kts | 303° |
| 2026-02-21 07:22 | 35.39053 | 139.90599 | 3078 ft | 188 kts | 305° |
| 2026-02-21 07:22 | 35.39889 | 139.89398 | 2828 ft | 182 kts | 313° |
| 2026-02-21 07:22 | 35.40812 | 139.88367 | 2569 ft | 178 kts | 319° |
| 2026-02-21 07:23 | 35.41766 | 139.87408 | 2249 ft | 177 kts | 322° |
| 2026-02-21 07:23 | 35.42762 | 139.86580 | 2076 ft | 171 kts | 327° |
| 2026-02-21 07:23 | 35.43747 | 139.85788 | 1973 ft | 162 kts | 326° |
| 2026-02-21 07:23 | 35.44749 | 139.85385 | 2072 ft | 154 kts | 6° |
| 2026-02-21 07:24 | 35.45861 | 139.85586 | 2234 ft | 167 kts | 6° |
| 2026-02-21 07:24 | 35.47007 | 139.85349 | 2171 ft | 164 kts | 340° |
| 2026-02-21 07:24 | 35.48006 | 139.84790 | 1807 ft | 158 kts | 331° |
| 2026-02-21 07:24 | 35.48959 | 139.84093 | 1365 ft | 164 kts | 331° |
| 2026-02-21 07:25 | 35.49917 | 139.83415 | 979 ft | 152 kts | 333° |
| 2026-02-21 07:25 | 35.50792 | 139.82826 | 743 ft | 136 kts | 328° |
| 2026-02-21 07:25 | 35.51621 | 139.82191 | 565 ft | 138 kts | 330° |
| 2026-02-21 07:25 | 35.52420 | 139.81625 | 380 ft | 130 kts | 330° |
| 2026-02-21 07:26 | 35.53231 | 139.81049 | 269 ft | 132 kts | 330° |
| 2026-02-21 07:26 | 35.54004 | 139.80492 | 107 ft | 126 kts | 329° |
| 2026-02-21 07:26 | 35.54717 | 139.79985 | 9 ft | 101 kts | 330° |
| 2026-02-21 07:26 | 35.55002 | 139.79784 | 8 ft | 27 kts | 329° |
| 2026-02-21 07:27 | 35.55166 | 139.79668 | 8 ft | 26 kts | 330° |
| 2026-02-21 07:27 | 35.55325 | 139.79547 | 8 ft | 26 kts | 324° |
| 2026-02-21 07:27 | 35.55454 | 139.79396 | 8 ft | 16 kts | 306° |
| 2026-02-21 07:27 | 35.55508 | 139.79282 | 9 ft | 15 kts | 288° |
| 2026-02-21 07:28 | 35.55455 | 139.79213 | 11 ft | 13 kts | 171° |
| 2026-02-21 07:28 | 35.55371 | 139.79265 | 10 ft | 14 kts | 151° |
| 2026-02-21 07:28 | 35.55298 | 139.79248 | 11 ft | 10 kts | 235° |
| 2026-02-21 07:28 | 35.55265 | 139.79175 | 13 ft | 8 kts | 239° |
| 2026-02-21 07:29 | 35.55239 | 139.79123 | 15 ft | 5 kts | 240° |
| 2026-02-21 07:29 | 35.55223 | 139.79091 | 16 ft | 4 kts | 238° |
| 2026-02-21 07:29 | 35.55192 | 139.79025 | 18 ft | 10 kts | 241° |
| 2026-02-21 07:29 | 35.55165 | 139.78967 | 20 ft | 3 kts | 240° |
| 2026-02-21 07:30 | 35.55162 | 139.78958 | 20 ft | 0 kts | 240° |